createdAt,value
2022-12-03T00:03:29.642Z,62.03
2022-12-03T00:08:31.360Z,61.35
2022-12-03T00:13:32.959Z,61.17
2022-12-03T00:18:34.546Z,61.98
2022-12-03T00:23:41.708Z,61.09
2022-12-03T00:28:44.020Z,61.29
2022-12-03T00:33:45.658Z,61.33
2022-12-03T00:38:47.391Z,59.73
2022-12-03T00:43:49.044Z,60.19
2022-12-03T00:48:50.738Z,62.27
2022-12-03T00:53:52.369Z,61.66
2022-12-03T00:58:54.032Z,61.04
2022-12-03T01:03:55.708Z,60.79
2022-12-03T01:08:57.405Z,60.81
2022-12-03T01:13:59.137Z,60.76
2022-12-03T01:19:00.858Z,59.83
2022-12-03T01:24:03.012Z,61.57
2022-12-03T01:29:05.409Z,60.47
2022-12-03T01:34:07.045Z,60.40
2022-12-03T01:39:08.859Z,60.88
2022-12-03T01:44:31.833Z,60.22
2022-12-03T01:49:44.192Z,61.48
2022-12-03T01:54:55.852Z,59.44
2022-12-03T01:59:59.976Z,60.47
2022-12-03T02:05:06.567Z,60.04
2022-12-03T02:10:11.463Z,60.62
2022-12-03T02:15:13.703Z,58.82
2022-12-03T02:20:15.840Z,58.68
2022-12-03T02:25:22.508Z,60.40
2022-12-03T02:30:27.016Z,58.19
2022-12-03T02:35:36.586Z,59.00
2022-12-03T02:40:38.429Z,60.89
2022-12-03T02:45:52.024Z,59.30
2022-12-03T02:50:57.359Z,59.43
2022-12-03T02:56:01.462Z,59.11
2022-12-03T03:01:05.160Z,59.77
2022-12-03T03:06:08.760Z,61.04
2022-12-03T03:11:11.039Z,62.16
2022-12-03T03:16:12.659Z,61.22
2022-12-03T03:21:14.763Z,61.13
2022-12-03T03:26:16.759Z,62.08
2022-12-03T03:31:22.794Z,61.64
2022-12-03T03:36:26.214Z,61.13
2022-12-03T03:41:28.900Z,62.20
2022-12-03T03:46:30.840Z,61.38
2022-12-03T03:51:35.009Z,62.71
2022-12-03T03:56:37.196Z,61.15
2022-12-03T04:01:39.079Z,59.20
2022-12-03T04:06:40.758Z,60.86
2022-12-03T04:12:02.039Z,59.72
2022-12-03T04:17:03.724Z,59.64
2022-12-03T04:22:24.006Z,60.36
2022-12-03T04:27:43.815Z,61.78
2022-12-03T04:33:04.402Z,62.79
2022-12-03T04:38:05.986Z,61.13
2022-12-03T04:43:07.649Z,60.90
2022-12-03T04:48:10.253Z,60.80
2022-12-03T04:53:12.064Z,62.85
2022-12-03T04:58:13.643Z,61.04
2022-12-03T05:03:15.355Z,61.43
2022-12-03T05:08:17.032Z,61.23
2022-12-03T05:13:18.691Z,61.92
2022-12-03T05:18:20.380Z,62.42
2022-12-03T05:23:22.163Z,61.23
2022-12-03T05:28:24.328Z,60.95
2022-12-03T05:33:25.990Z,62.18
2022-12-03T05:38:27.870Z,62.25
2022-12-03T05:43:29.465Z,62.35
2022-12-03T05:48:31.039Z,61.51
2022-12-03T05:53:32.602Z,59.85
2022-12-03T05:58:34.181Z,58.98
2022-12-03T06:03:36.057Z,59.01
2022-12-03T06:08:37.864Z,59.81
2022-12-03T06:13:39.476Z,60.17
2022-12-03T06:18:41.027Z,59.12
2022-12-03T06:23:44.860Z,58.22
2022-12-03T06:28:47.728Z,60.00
2022-12-03T06:33:49.299Z,61.21
2022-12-03T06:38:50.970Z,61.71
2022-12-03T06:43:52.660Z,59.75
2022-12-03T06:48:54.258Z,58.06
2022-12-03T06:53:55.889Z,60.53
2022-12-03T06:58:57.469Z,60.55
2022-12-03T07:03:59.140Z,60.24
2022-12-03T07:09:00.714Z,59.83
2022-12-03T07:14:05.545Z,59.06
2022-12-03T07:19:07.708Z,60.30
2022-12-03T07:24:09.425Z,60.08
2022-12-03T07:29:11.090Z,59.60
2022-12-03T07:34:12.882Z,60.35
2022-12-03T07:39:14.820Z,58.76
2022-12-03T07:44:16.445Z,59.35
2022-12-03T07:49:18.079Z,60.96
2022-12-03T07:54:23.847Z,59.46
2022-12-03T07:59:25.551Z,59.78
2022-12-03T08:04:27.158Z,59.86
2022-12-03T08:09:28.730Z,60.11
2022-12-03T08:14:30.316Z,59.85
2022-12-03T08:19:31.919Z,59.30
2022-12-03T08:24:33.618Z,60.15
2022-12-03T08:29:35.229Z,60.81
2022-12-03T08:34:42.529Z,60.82
2022-12-03T08:39:49.682Z,59.45
2022-12-03T08:44:52.632Z,59.84
2022-12-03T08:49:58.268Z,59.09
2022-12-03T08:55:02.882Z,59.52
2022-12-03T09:00:19.965Z,59.70
2022-12-03T09:05:39.471Z,58.92
2022-12-03T09:10:41.111Z,58.84
2022-12-03T09:15:42.742Z,61.30
2022-12-03T09:20:44.641Z,59.70
2022-12-03T09:25:46.259Z,60.77
2022-12-03T09:30:48.032Z,60.59
2022-12-03T09:35:49.740Z,59.36
2022-12-03T09:40:51.632Z,58.50
2022-12-03T09:45:53.405Z,58.31
2022-12-03T09:50:56.639Z,57.88
2022-12-03T09:56:00.099Z,58.55
2022-12-03T10:01:01.882Z,59.00
2022-12-03T10:06:03.597Z,60.03
2022-12-03T10:11:05.416Z,58.78
2022-12-03T10:16:12.170Z,58.45
2022-12-03T10:21:38.083Z,58.81
2022-12-03T10:26:40.838Z,58.54
2022-12-03T10:31:42.803Z,58.48
2022-12-03T10:36:44.452Z,60.02
2022-12-03T10:41:46.180Z,59.07
2022-12-03T10:47:06.589Z,59.72
2022-12-03T10:52:25.718Z,58.60
2022-12-03T10:57:27.986Z,59.71
2022-12-03T11:06:25.375Z,64.28
2022-12-03T11:11:29.569Z,63.32
2022-12-03T11:16:40.038Z,64.25
2022-12-03T11:22:06.365Z,62.84
2022-12-03T11:27:10.805Z,63.08
2022-12-03T11:32:38.237Z,63.93
2022-12-03T11:37:40.056Z,62.76
2022-12-03T11:42:42.155Z,63.18
2022-12-03T11:47:47.021Z,62.94
2022-12-03T11:53:10.461Z,62.40
2022-12-03T11:58:26.044Z,62.17
2022-12-03T12:03:33.706Z,61.23
2022-12-03T12:08:41.831Z,62.29
2022-12-03T12:13:43.438Z,61.69
2022-12-03T12:18:53.718Z,61.16
2022-12-03T12:23:56.530Z,60.91
2022-12-03T12:28:58.099Z,60.09
2022-12-03T12:33:59.679Z,60.61
2022-12-03T12:39:01.317Z,61.64
2022-12-03T12:44:08.240Z,62.58
2022-12-03T12:49:15.264Z,61.70
2022-12-03T12:54:20.778Z,61.61
2022-12-03T12:59:24.509Z,60.94
2022-12-03T13:04:27.856Z,60.79
2022-12-03T13:09:29.951Z,60.90
2022-12-03T13:14:35.198Z,59.75
2022-12-03T13:19:48.285Z,60.20
2022-12-03T13:24:52.838Z,60.64
2022-12-03T13:30:01.404Z,61.65
2022-12-03T13:35:28.111Z,60.29
2022-12-03T13:40:32.892Z,60.00
2022-12-03T13:45:39.233Z,60.96
2022-12-03T13:50:44.554Z,60.52
2022-12-03T13:55:48.730Z,59.28
2022-12-03T14:00:50.531Z,59.02
2022-12-03T14:05:52.112Z,59.97
2022-12-03T14:10:59.928Z,58.78
2022-12-03T14:16:02.318Z,59.56
2022-12-03T14:21:03.942Z,58.45
2022-12-03T14:26:05.626Z,57.99
2022-12-03T14:31:07.291Z,58.33
2022-12-03T14:36:09.456Z,58.86
2022-12-03T14:41:31.117Z,58.35
2022-12-03T14:46:32.868Z,58.76
2022-12-03T14:51:34.600Z,58.50
2022-12-03T14:56:36.544Z,58.22
2022-12-03T15:01:38.324Z,58.47
2022-12-03T15:06:40.097Z,57.64
2022-12-03T15:11:46.169Z,57.83
2022-12-03T15:16:48.484Z,58.97
2022-12-03T15:21:50.203Z,58.15
2022-12-03T15:26:53.580Z,57.54
2022-12-03T15:31:55.357Z,58.45
2022-12-03T15:36:57.171Z,59.08
2022-12-03T15:41:58.876Z,59.06
2022-12-03T15:47:00.577Z,58.94
2022-12-03T15:52:02.367Z,57.81
2022-12-03T15:57:04.116Z,57.16
2022-12-03T16:02:06.044Z,56.48
2022-12-03T16:07:07.836Z,59.21
2022-12-03T16:12:09.499Z,58.36
2022-12-03T16:17:11.347Z,58.62
2022-12-03T16:22:13.543Z,58.42
2022-12-03T16:27:15.240Z,58.36
2022-12-03T16:32:16.838Z,58.52
2022-12-03T16:37:18.526Z,58.17
2022-12-03T16:42:20.234Z,59.46
2022-12-03T16:47:22.823Z,57.10
2022-12-03T16:52:24.514Z,57.15
2022-12-03T16:57:31.710Z,58.64
2022-12-03T17:02:35.233Z,57.68
2022-12-03T17:07:36.938Z,58.99
2022-12-03T17:13:07.706Z,58.45
2022-12-03T17:18:01.005Z,59.29
2022-12-03T17:23:02.713Z,58.66
2022-12-03T17:28:04.421Z,59.82
2022-12-03T17:33:06.196Z,58.34
2022-12-03T17:38:09.134Z,59.18
2022-12-03T17:43:10.802Z,58.76
2022-12-03T17:48:12.511Z,59.07
2022-12-03T17:53:14.333Z,57.80
2022-12-03T17:58:16.179Z,58.01
2022-12-03T18:03:17.787Z,58.19
2022-12-03T18:08:19.599Z,58.36
2022-12-03T18:13:21.396Z,58.22
2022-12-03T18:18:23.168Z,59.37
2022-12-03T18:23:24.923Z,59.39
2022-12-03T18:28:26.649Z,58.92
2022-12-03T18:33:28.786Z,59.06
2022-12-03T18:38:33.015Z,59.61
2022-12-03T18:43:34.810Z,59.17
2022-12-03T18:48:36.440Z,59.48
2022-12-03T18:53:38.312Z,58.39
2022-12-03T18:58:40.662Z,60.15
2022-12-03T19:03:42.762Z,60.17
2022-12-03T19:08:45.215Z,58.58
2022-12-03T19:13:47.085Z,58.97
2022-12-03T19:18:48.931Z,58.92
2022-12-03T19:24:21.965Z,57.87
2022-12-03T19:29:12.411Z,59.14
2022-12-03T19:34:14.104Z,59.66
2022-12-03T19:39:15.781Z,59.18
2022-12-03T19:44:18.655Z,59.57
2022-12-03T19:49:21.372Z,58.49
2022-12-03T19:54:24.091Z,58.54
2022-12-03T19:59:25.803Z,57.93
2022-12-03T20:04:27.505Z,58.76
2022-12-03T20:09:29.223Z,58.28
2022-12-03T20:14:31.028Z,59.65
2022-12-03T20:19:32.998Z,59.42
2022-12-03T20:24:34.672Z,57.69
2022-12-03T20:29:36.358Z,58.72
2022-12-03T20:34:38.321Z,59.43
2022-12-03T20:39:40.073Z,59.19
2022-12-03T20:44:41.775Z,57.61
2022-12-03T20:49:43.495Z,58.12
2022-12-03T20:54:45.252Z,59.62
2022-12-03T20:59:46.975Z,57.18
2022-12-03T21:04:48.625Z,58.26
2022-12-03T21:09:50.778Z,58.88
2022-12-03T21:14:52.475Z,59.64
2022-12-03T21:19:54.487Z,59.65
2022-12-03T21:24:56.514Z,59.27
2022-12-03T21:29:58.167Z,58.40
2022-12-03T21:34:59.843Z,57.99
2022-12-03T21:40:01.644Z,57.93
2022-12-03T21:45:03.865Z,56.32
2022-12-03T21:50:09.225Z,58.11
2022-12-03T21:55:10.961Z,57.86
2022-12-03T22:00:13.308Z,58.28
2022-12-03T22:05:15.066Z,57.48
2022-12-03T22:10:16.857Z,58.20
2022-12-03T22:15:19.549Z,57.38
2022-12-03T22:20:21.391Z,56.70
2022-12-03T22:25:23.204Z,58.39
2022-12-03T22:30:24.944Z,58.07
2022-12-03T22:35:26.675Z,57.94
2022-12-03T22:40:28.425Z,57.86
2022-12-03T22:45:30.055Z,57.43
2022-12-03T22:50:31.731Z,57.46
2022-12-03T22:55:33.406Z,57.75
2022-12-03T23:00:41.192Z,58.47
2022-12-03T23:05:43.266Z,59.23
2022-12-03T23:10:47.302Z,58.05
2022-12-03T23:15:51.448Z,57.59
2022-12-03T23:20:55.110Z,57.88
2022-12-03T23:26:07.692Z,59.11
2022-12-03T23:31:30.485Z,58.68
2022-12-03T23:36:33.568Z,58.04
2022-12-03T23:41:36.200Z,57.41
2022-12-03T23:46:39.713Z,58.89
2022-12-03T23:51:41.500Z,57.83
2022-12-03T23:56:43.199Z,57.05
